Time;durP1;ratioP1;P1;durP2;ratioP2;P2;SDS_P1;SDS_P2;PMS_P1;PMS_P2;Temp;Humidity;BMP_temperature;BMP_pressure;BME280_temperature;BME280_humidity;BME280_pressure;Samples;Min_cycle;Max_cycle;Signal;HPM_P1;HPM_P2
2021/07/05 00:00:16;;;;;;;5.80;1.70;;;15.70;99.90;;;;;;4976739;28;20435;-85
2021/07/05 00:02:43;;;;;;;8.70;1.87;;;15.70;99.90;;;;;;4978224;28;20550;-83
2021/07/05 00:05:12;;;;;;;2.70;1.67;;;15.60;99.90;;;;;;4978342;28;20466;-83
2021/07/05 00:07:42;;;;;;;2.47;1.80;;;15.60;99.90;;;;;;4978338;28;20466;-86
2021/07/05 00:10:10;;;;;;;4.43;1.50;;;15.60;99.90;;;;;;4996588;28;20432;-86
2021/07/05 00:12:40;;;;;;;3.07;1.67;;;15.60;99.90;;;;;;4995772;28;20502;-84
2021/07/05 00:15:08;;;;;;;5.23;1.47;;;15.60;99.90;;;;;;4997702;28;20410;-86
2021/07/05 00:17:35;;;;;;;4.90;1.43;;;15.60;99.90;;;;;;4986105;28;20576;-86
2021/07/05 00:20:04;;;;;;;3.70;1.70;;;15.60;99.90;;;;;;4977372;28;20404;-85
2021/07/05 00:22:31;;;;;;;3.17;1.90;;;15.60;99.90;;;;;;4991193;28;20467;-87
2021/07/05 00:24:58;;;;;;;5.33;1.60;;;15.50;99.90;;;;;;4996185;28;20509;-85
2021/07/05 00:27:25;;;;;;;7.87;2.00;;;15.50;99.90;;;;;;4996171;28;20483;-84
2021/07/05 00:29:52;;;;;;;3.43;2.10;;;15.50;99.90;;;;;;4997052;28;20437;-84
2021/07/05 00:32:18;;;;;;;11.33;2.23;;;15.50;99.90;;;;;;4996527;28;20480;-86
2021/07/05 00:34:46;;;;;;;6.40;1.90;;;15.40;99.90;;;;;;4995704;28;20469;-85
2021/07/05 00:37:14;;;;;;;5.83;2.00;;;15.40;99.90;;;;;;4994871;28;20458;-84
2021/07/05 00:39:41;;;;;;;3.50;1.87;;;15.40;99.90;;;;;;4980275;28;20439;-83
2021/07/05 00:42:08;;;;;;;3.10;1.90;;;15.40;99.90;;;;;;4959613;28;20840;-85
2021/07/05 00:44:35;;;;;;;3.00;1.60;;;15.40;99.90;;;;;;4986214;28;20449;-83
2021/07/05 00:47:03;;;;;;;4.40;1.50;;;15.40;99.90;;;;;;4977257;28;20545;-85
2021/07/05 00:49:30;;;;;;;5.17;2.37;;;15.40;99.90;;;;;;4975603;28;20435;-85
2021/07/05 00:52:04;;;;;;;6.43;2.23;;;15.40;99.90;;;;;;4993404;28;20474;-86
2021/07/05 00:54:31;;;;;;;3.80;1.87;;;15.40;99.90;;;;;;5006935;28;20450;-85
2021/07/05 00:56:59;;;;;;;5.73;2.00;;;15.40;99.90;;;;;;4976602;28;20985;-85
2021/07/05 00:59:28;;;;;;;8.87;2.20;;;15.40;99.90;;;;;;4977835;28;20433;-82
2021/07/05 01:01:55;;;;;;;9.03;1.90;;;15.40;99.90;;;;;;4988305;28;21026;-84
2021/07/05 01:04:22;;;;;;;5.93;1.80;;;15.40;99.90;;;;;;4994888;28;20434;-82
2021/07/05 01:06:49;;;;;;;4.63;1.83;;;15.40;99.90;;;;;;4994583;28;20473;-84
2021/07/05 01:09:16;;;;;;;5.50;1.97;;;15.40;99.90;;;;;;4995649;28;21139;-84
2021/07/05 01:11:43;;;;;;;4.40;1.90;;;15.40;99.90;;;;;;4994672;28;20465;-85
2021/07/05 01:14:10;;;;;;;2.97;2.00;;;15.40;99.90;;;;;;5012150;28;20791;-84
2021/07/05 01:16:37;;;;;;;3.90;2.63;;;15.40;99.90;;;;;;5002070;28;20470;-85
2021/07/05 01:19:04;;;;;;;2.70;1.30;;;15.40;99.90;;;;;;4975475;28;20438;-85
2021/07/05 01:21:31;;;;;;;4.30;1.50;;;15.40;99.90;;;;;;4975044;28;20478;-86
2021/07/05 01:23:57;;;;;;;2.67;1.33;;;15.40;99.90;;;;;;4975991;28;20944;-85
2021/07/05 01:26:25;;;;;;;4.90;1.50;;;15.30;99.90;;;;;;4990389;28;20465;-84
2021/07/05 01:28:51;;;;;;;6.53;1.63;;;15.20;99.90;;;;;;4975590;28;20438;-83
2021/07/05 01:31:18;;;;;;;6.83;2.33;;;15.20;99.90;;;;;;4981929;28;20839;-86
2021/07/05 01:33:45;;;;;;;4.17;1.80;;;15.10;99.90;;;;;;4989841;28;20442;-83
2021/07/05 01:36:12;;;;;;;6.10;2.60;;;15.20;99.90;;;;;;4994931;28;20791;-83
2021/07/05 01:38:42;;;;;;;6.57;1.50;;;15.10;99.90;;;;;;4995057;28;20445;-85
2021/07/05 01:41:10;;;;;;;4.50;1.77;;;15.10;99.90;;;;;;5009075;28;20423;-84
2021/07/05 01:43:37;;;;;;;24.07;3.73;;;15.10;99.90;;;;;;5009705;28;20971;-83
2021/07/05 01:46:05;;;;;;;7.37;2.00;;;15.10;99.90;;;;;;4992219;28;20469;-85
2021/07/05 01:48:34;;;;;;;9.90;2.03;;;15.20;99.90;;;;;;4993980;28;20500;-82
2021/07/05 01:51:01;;;;;;;7.43;1.60;;;15.00;99.90;;;;;;4995463;28;20414;-85
2021/07/05 01:53:29;;;;;;;4.73;1.70;;;15.00;99.90;;;;;;5008664;28;20470;-85
2021/07/05 01:55:56;;;;;;;10.20;2.20;;;14.90;99.90;;;;;;4994756;28;20944;-84
2021/07/05 01:58:23;;;;;;;4.43;1.73;;;14.90;99.90;;;;;;4993733;28;20457;-85
2021/07/05 02:00:51;;;;;;;7.33;2.13;;;14.90;99.90;;;;;;5008905;28;20453;-85
2021/07/05 02:03:18;;;;;;;9.60;2.37;;;14.90;99.90;;;;;;4992647;28;20471;-82
2021/07/05 02:05:46;;;;;;;7.90;1.57;;;14.90;99.90;;;;;;4995124;28;20465;-85
2021/07/05 02:08:15;;;;;;;7.37;1.77;;;14.90;99.90;;;;;;4989188;28;20479;-86
2021/07/05 02:10:43;;;;;;;7.03;2.50;;;14.90;99.90;;;;;;4975229;28;20913;-83
2021/07/05 02:13:13;;;;;;;2.40;1.90;;;14.90;99.90;;;;;;4975050;28;20465;-81
2021/07/05 02:15:41;;;;;;;2.60;1.63;;;14.90;99.90;;;;;;5007651;28;20442;-84
2021/07/05 02:18:10;;;;;;;7.93;2.60;;;14.90;99.90;;;;;;4974023;28;20562;-84
2021/07/05 02:20:37;;;;;;;5.83;1.93;;;14.80;99.90;;;;;;4975183;28;20465;-83
2021/07/05 02:23:06;;;;;;;4.00;1.53;;;14.90;99.90;;;;;;4979123;28;20489;-84
2021/07/05 02:25:34;;;;;;;8.90;1.60;;;14.80;99.90;;;;;;4993659;28;20424;-85
2021/07/05 02:28:07;;;;;;;5.70;2.17;;;14.90;99.90;;;;;;4992415;28;20886;-85
2021/07/05 02:30:35;;;;;;;5.13;2.17;;;14.90;99.90;;;;;;4994404;28;20521;-85
2021/07/05 02:33:02;;;;;;;6.50;2.70;;;14.90;99.90;;;;;;4975161;28;20976;-85
2021/07/05 02:35:31;;;;;;;4.37;2.27;;;14.90;99.90;;;;;;4994854;28;20441;-86
2021/07/05 02:37:59;;;;;;;5.80;2.07;;;15.00;99.90;;;;;;4995114;28;20813;-83
2021/07/05 02:40:29;;;;;;;7.00;1.90;;;15.00;99.90;;;;;;5014229;28;20425;-84
2021/07/05 02:42:56;;;;;;;7.43;1.67;;;15.00;99.90;;;;;;5012469;28;20979;-84
2021/07/05 02:45:25;;;;;;;4.83;2.07;;;15.00;99.90;;;;;;5012382;28;20422;-85
2021/07/05 02:47:55;;;;;;;5.33;1.90;;;15.10;99.90;;;;;;5011937;28;20478;-84
2021/07/05 02:50:22;;;;;;;5.83;1.67;;;15.10;99.90;;;;;;5012143;28;20431;-85
2021/07/05 02:52:50;;;;;;;4.07;1.87;;;15.20;99.90;;;;;;5008051;28;20485;-84
2021/07/05 02:55:17;;;;;;;4.93;1.80;;;15.20;99.90;;;;;;4972980;28;20431;-84
2021/07/05 02:57:45;;;;;;;4.53;1.23;;;15.20;99.90;;;;;;4989165;28;20469;-84
2021/07/05 03:00:19;;;;;;;10.60;2.00;;;15.20;99.90;;;;;;4975896;28;20455;-85
2021/07/05 03:02:47;;;;;;;7.77;1.50;;;15.30;99.90;;;;;;5004083;28;20461;-82
2021/07/05 03:05:19;;;;;;;6.40;1.60;;;15.30;99.90;;;;;;4995011;28;20828;-84
2021/07/05 03:07:46;;;;;;;4.50;1.60;;;15.30;99.90;;;;;;5008650;28;20457;-84
2021/07/05 03:10:16;;;;;;;4.73;1.70;;;15.30;99.90;;;;;;4994446;28;20426;-84
2021/07/05 03:12:44;;;;;;;3.57;1.70;;;15.30;99.90;;;;;;5003915;28;20575;-85
2021/07/05 03:15:13;;;;;;;5.03;1.60;;;15.40;99.90;;;;;;5016937;28;20974;-84
2021/07/05 03:17:41;;;;;;;4.40;2.73;;;15.40;99.90;;;;;;5007020;28;20473;-83
2021/07/05 03:20:10;;;;;;;4.07;2.00;;;15.40;99.90;;;;;;5012006;28;20465;-84
2021/07/05 03:22:37;;;;;;;4.10;1.80;;;15.50;99.90;;;;;;4996130;28;20480;-81
2021/07/05 03:25:08;;;;;;;3.00;1.83;;;15.70;99.90;;;;;;4976768;28;20441;-82
2021/07/05 03:27:35;;;;;;;2.97;1.83;;;15.80;99.90;;;;;;4975699;28;20968;-83
2021/07/05 03:30:04;;;;;;;5.23;2.10;;;15.80;99.90;;;;;;4991041;28;20849;-83
2021/07/05 03:32:35;;;;;;;2.23;1.57;;;15.90;99.90;;;;;;4974778;28;20573;-82
2021/07/05 03:35:09;;;;;;;2.80;1.40;;;15.80;99.90;;;;;;5005490;28;20426;-83
2021/07/05 03:37:36;;;;;;;2.70;1.03;;;15.80;99.90;;;;;;4975921;28;20816;-83
2021/07/05 03:40:06;;;;;;;1.47;1.00;;;15.80;99.90;;;;;;4991215;28;20445;-83
2021/07/05 03:42:33;;;;;;;1.90;0.90;;;15.80;99.90;;;;;;4975080;28;20462;-83
2021/07/05 03:45:02;;;;;;;1.10;1.00;;;15.80;99.90;;;;;;4994565;28;20805;-82
2021/07/05 03:47:29;;;;;;;2.00;0.87;;;15.80;99.90;;;;;;5006397;28;20585;-84
2021/07/05 03:49:56;;;;;;;2.50;0.77;;;15.80;99.90;;;;;;4975497;28;20437;-82
2021/07/05 03:52:26;;;;;;;1.10;0.70;;;15.80;99.90;;;;;;4991127;28;20502;-84
2021/07/05 03:54:53;;;;;;;0.97;0.87;;;15.80;99.90;;;;;;5010086;28;20445;-83
2021/07/05 03:57:23;;;;;;;1.17;0.80;;;15.70;99.90;;;;;;4993422;28;21034;-82
2021/07/05 03:59:50;;;;;;;0.80;0.70;;;15.70;99.90;;;;;;4994901;28;20508;-83
2021/07/05 04:02:20;;;;;;;1.57;0.97;;;15.70;99.90;;;;;;4976214;28;20477;-83
2021/07/05 04:04:48;;;;;;;1.63;0.90;;;15.60;99.90;;;;;;4975580;28;20466;-84
2021/07/05 04:07:18;;;;;;;8.77;1.10;;;15.70;99.90;;;;;;4975912;28;20467;-85
2021/07/05 04:09:45;;;;;;;1.50;0.90;;;15.70;99.90;;;;;;4992476;28;20451;-83
2021/07/05 04:12:16;;;;;;;1.67;1.33;;;15.60;99.90;;;;;;4993233;28;20550;-84
2021/07/05 04:14:43;;;;;;;2.60;1.43;;;15.60;99.90;;;;;;5014810;28;20422;-84
2021/07/05 04:17:13;;;;;;;1.77;1.20;;;15.50;99.90;;;;;;4998400;28;20848;-84
2021/07/05 04:19:45;;;;;;;3.70;1.67;;;15.50;99.90;;;;;;4974932;28;20434;-84
2021/07/05 04:22:15;;;;;;;2.90;1.00;;;15.40;99.90;;;;;;4990019;28;20471;-83
2021/07/05 04:24:43;;;;;;;3.20;1.30;;;15.50;99.90;;;;;;4976261;28;20450;-85
2021/07/05 04:27:11;;;;;;;5.73;1.60;;;15.40;99.90;;;;;;4974537;28;20969;-84
2021/07/05 04:29:44;;;;;;;2.30;1.57;;;15.40;99.90;;;;;;4975979;28;20525;-83
2021/07/05 04:32:13;;;;;;;2.07;1.50;;;15.40;99.90;;;;;;4957139;28;20536;-83
2021/07/05 04:34:48;;;;;;;3.73;1.50;;;15.40;99.90;;;;;;5006517;28;20437;-85
2021/07/05 04:37:16;;;;;;;2.60;1.70;;;15.30;99.90;;;;;;4994119;28;20466;-85
2021/07/05 04:39:44;;;;;;;2.27;1.77;;;15.30;99.90;;;;;;4977432;28;20450;-83
2021/07/05 04:42:11;;;;;;;2.00;1.73;;;15.30;99.90;;;;;;4989480;28;20475;-83
2021/07/05 04:44:40;;;;;;;2.17;1.97;;;15.30;99.90;;;;;;4974014;28;20462;-84
2021/07/05 04:47:07;;;;;;;4.10;2.37;;;15.40;99.90;;;;;;4973983;28;20467;-81
2021/07/05 04:49:36;;;;;;;3.63;2.33;;;15.40;99.90;;;;;;5010150;28;20437;-83
2021/07/05 04:52:03;;;;;;;3.10;2.30;;;15.40;99.90;;;;;;4993914;28;20466;-83
2021/07/05 04:54:30;;;;;;;2.07;1.80;;;15.40;99.90;;;;;;4994087;28;20440;-83
2021/07/05 04:56:57;;;;;;;2.60;1.77;;;15.30;99.90;;;;;;4992494;28;20516;-82
2021/07/05 04:59:27;;;;;;;3.00;2.23;;;15.30;99.90;;;;;;4994388;28;20429;-82
2021/07/05 05:01:54;;;;;;;2.30;2.10;;;15.30;99.90;;;;;;4986618;28;21112;-83
2021/07/05 05:04:21;;;;;;;5.00;2.27;;;15.30;99.90;;;;;;4989842;28;20929;-85
2021/07/05 05:06:48;;;;;;;2.87;2.40;;;15.40;99.90;;;;;;4973888;28;20475;-82
2021/07/05 05:09:18;;;;;;;4.03;2.13;;;15.30;99.90;;;;;;4988899;28;20438;-84
2021/07/05 05:11:47;;;;;;;2.23;1.93;;;15.40;99.90;;;;;;5008976;28;20450;-83
2021/07/05 05:14:14;;;;;;;3.87;1.97;;;15.40;99.90;;;;;;4994346;28;20446;-82
2021/07/05 05:16:41;;;;;;;6.13;2.60;;;15.40;99.90;;;;;;5008611;28;20469;-82
2021/07/05 05:19:08;;;;;;;3.10;2.00;;;15.40;99.90;;;;;;4992062;28;20486;-83
2021/07/05 05:21:35;;;;;;;2.17;1.90;;;15.40;99.90;;;;;;4992248;28;20473;-82
2021/07/05 05:24:03;;;;;;;2.80;2.27;;;15.40;99.90;;;;;;5008396;28;20867;-82
2021/07/05 05:26:30;;;;;;;4.97;2.10;;;15.50;99.90;;;;;;4992066;28;20470;-85
2021/07/05 05:28:58;;;;;;;2.63;2.20;;;15.50;99.90;;;;;;5008825;28;20463;-84
2021/07/05 05:31:25;;;;;;;5.13;2.20;;;15.50;99.90;;;;;;4985479;28;20422;-83
2021/07/05 05:33:53;;;;;;;3.97;2.67;;;15.40;99.90;;;;;;5000470;28;20557;-83
2021/07/05 05:36:20;;;;;;;5.70;2.70;;;15.40;99.90;;;;;;4974011;28;20419;-85
2021/07/05 05:38:49;;;;;;;3.77;2.00;;;15.40;99.90;;;;;;4976923;28;20435;-84
2021/07/05 05:41:19;;;;;;;4.47;2.50;;;15.50;99.90;;;;;;4973778;28;20435;-82
2021/07/05 05:43:46;;;;;;;4.73;2.80;;;15.50;99.90;;;;;;4974879;28;20442;-82
2021/07/05 05:46:16;;;;;;;2.93;2.63;;;15.50;99.90;;;;;;4979164;28;20500;-81
2021/07/05 05:48:49;;;;;;;4.63;3.00;;;15.50;99.90;;;;;;4994121;28;20899;-84
2021/07/05 05:51:17;;;;;;;3.57;2.30;;;15.60;99.90;;;;;;4994897;28;20442;-84
2021/07/05 05:53:44;;;;;;;6.00;2.93;;;15.60;99.90;;;;;;5002143;28;20473;-85
2021/07/05 05:56:12;;;;;;;4.70;2.60;;;15.70;99.90;;;;;;5001196;28;20933;-85
2021/07/05 05:58:41;;;;;;;2.77;2.47;;;15.70;99.90;;;;;;4973277;28;20444;-84
2021/07/05 06:01:08;;;;;;;2.90;2.30;;;15.80;99.90;;;;;;4986489;28;20442;-83
2021/07/05 06:03:35;;;;;;;4.60;2.43;;;15.80;99.90;;;;;;4992859;28;20460;-83
2021/07/05 06:06:02;;;;;;;6.13;3.27;;;15.70;99.90;;;;;;4994065;28;20433;-84
2021/07/05 06:08:29;;;;;;;3.90;2.90;;;15.70;99.90;;;;;;4992979;28;20841;-83
2021/07/05 06:10:56;;;;;;;2.90;2.67;;;15.70;99.90;;;;;;4992529;28;20450;-82
2021/07/05 06:13:24;;;;;;;2.83;2.50;;;15.80;99.90;;;;;;4996937;28;20466;-83
2021/07/05 06:15:51;;;;;;;3.73;2.70;;;15.90;99.90;;;;;;4994030;28;20948;-83
2021/07/05 06:18:18;;;;;;;4.00;3.13;;;16.00;99.90;;;;;;4993248;28;20635;-84
2021/07/05 06:20:45;;;;;;;4.17;3.00;;;16.00;99.90;;;;;;4994574;28;20484;-83
2021/07/05 06:23:25;;;;;;;3.27;2.57;;;16.20;99.90;;;;;;4988803;28;20521;-83
2021/07/05 06:25:53;;;;;;;5.57;2.53;;;16.30;99.90;;;;;;4959511;28;20430;-84
2021/07/05 06:28:21;;;;;;;5.13;3.00;;;16.30;99.90;;;;;;4975273;28;20478;-83
2021/07/05 06:30:49;;;;;;;4.17;2.80;;;16.40;99.90;;;;;;4974332;28;20478;-84
2021/07/05 06:33:18;;;;;;;4.27;2.70;;;16.50;99.90;;;;;;4989091;28;20462;-85
2021/07/05 06:35:46;;;;;;;4.23;3.20;;;16.50;99.90;;;;;;4976510;28;20419;-79
2021/07/05 06:38:15;;;;;;;2.47;2.27;;;16.60;99.90;;;;;;4982772;28;20847;-84
2021/07/05 06:40:44;;;;;;;4.07;2.90;;;16.70;99.90;;;;;;5011946;28;20524;-84
2021/07/05 06:43:13;;;;;;;3.37;2.47;;;16.90;99.90;;;;;;5011883;28;21153;-84
2021/07/05 06:45:57;;;;;;;6.37;3.47;;;16.90;99.90;;;;;;5005628;28;20979;-83
2021/07/05 06:48:24;;;;;;;12.30;3.50;;;17.00;99.90;;;;;;4980890;28;20470;-83
2021/07/05 06:50:51;;;;;;;4.13;3.27;;;17.00;99.90;;;;;;5014281;28;20418;-84
2021/07/05 06:53:18;;;;;;;7.83;2.97;;;17.10;99.90;;;;;;4991227;28;20993;-82
2021/07/05 06:55:45;;;;;;;3.80;3.37;;;17.20;99.90;;;;;;4977663;28;20513;-84
2021/07/05 06:58:12;;;;;;;4.80;2.73;;;17.10;99.90;;;;;;4979709;28;20469;-82
2021/07/05 07:00:39;;;;;;;3.03;1.67;;;17.10;99.90;;;;;;4978321;28;21138;-81
2021/07/05 07:03:06;;;;;;;4.77;2.37;;;17.10;99.90;;;;;;5010726;28;20552;-82
2021/07/05 07:05:34;;;;;;;2.23;2.03;;;17.00;99.90;;;;;;4996144;28;20897;-81
2021/07/05 07:08:03;;;;;;;3.07;1.87;;;17.00;99.90;;;;;;5002831;28;20469;-81
2021/07/05 07:10:30;;;;;;;3.17;2.00;;;17.00;99.90;;;;;;4995961;28;20430;-83
2021/07/05 07:12:57;;;;;;;3.70;2.20;;;17.00;99.90;;;;;;4994500;28;20471;-80
2021/07/05 07:15:46;;;;;;;1.97;1.67;;;16.90;99.90;;;;;;4976474;28;20422;-80
2021/07/05 07:18:44;;;;;;;2.43;1.83;;;16.90;99.90;;;;;;4991214;28;20505;-81
2021/07/05 07:21:11;;;;;;;2.60;1.70;;;16.90;99.90;;;;;;4995302;28;20430;-77
2021/07/05 07:23:38;;;;;;;6.73;2.00;;;17.00;99.90;;;;;;4993456;28;20803;-78
2021/07/05 07:26:05;;;;;;;2.90;2.00;;;17.00;99.90;;;;;;4987798;28;20529;-80
2021/07/05 07:28:32;;;;;;;3.67;2.07;;;17.00;99.90;;;;;;4975716;28;21005;-77
2021/07/05 07:30:59;;;;;;;2.90;2.30;;;17.00;99.90;;;;;;5011046;28;21010;-80
2021/07/05 07:33:26;;;;;;;3.60;1.97;;;17.00;99.90;;;;;;5013380;28;20999;-80
2021/07/05 07:35:55;;;;;;;5.80;2.27;;;17.00;99.90;;;;;;5015084;28;20422;-79
2021/07/05 07:38:23;;;;;;;6.40;2.43;;;17.00;99.90;;;;;;5001939;28;20481;-78
2021/07/05 07:40:50;;;;;;;3.33;1.70;;;17.10;99.90;;;;;;4978642;28;20779;-79
2021/07/05 07:43:17;;;;;;;5.53;2.03;;;17.10;99.90;;;;;;4989377;28;20477;-80
2021/07/05 07:45:44;;;;;;;3.03;2.00;;;17.10;99.90;;;;;;4996491;28;20431;-79
2021/07/05 07:48:11;;;;;;;5.60;2.57;;;17.10;99.90;;;;;;4983415;28;20477;-82
2021/07/05 07:50:38;;;;;;;1.53;1.43;;;17.10;99.90;;;;;;4995662;28;20513;-78
2021/07/05 07:53:04;;;;;;;2.90;2.00;;;17.10;99.90;;;;;;4991176;28;20477;-77
2021/07/05 07:55:31;;;;;;;2.43;2.23;;;17.00;99.90;;;;;;4974853;28;20431;-79
2021/07/05 07:57:58;;;;;;;8.70;2.03;;;17.00;99.90;;;;;;4974353;28;21070;-79
2021/07/05 08:00:29;;;;;;;1.80;1.70;;;17.00;99.90;;;;;;4977189;28;20789;-79
2021/07/05 08:02:56;;;;;;;2.13;1.67;;;17.00;99.90;;;;;;5009456;28;20486;-78
2021/07/05 08:05:23;;;;;;;4.10;2.30;;;17.00;99.90;;;;;;4995168;28;20425;-77
2021/07/05 08:07:50;;;;;;;3.07;1.80;;;17.10;99.90;;;;;;4992857;28;20999;-79
2021/07/05 08:10:20;;;;;;;2.33;1.73;;;17.10;99.90;;;;;;4994103;28;20750;-78
2021/07/05 08:12:47;;;;;;;2.10;1.83;;;17.00;99.90;;;;;;4993186;28;20470;-79
2021/07/05 08:15:16;;;;;;;1.93;1.70;;;17.10;99.90;;;;;;4994939;28;20424;-79
2021/07/05 08:17:48;;;;;;;2.43;1.83;;;17.20;99.90;;;;;;5000819;28;20476;-79
2021/07/05 08:20:21;;;;;;;2.53;1.80;;;17.20;99.90;;;;;;5009883;28;20986;-77
2021/07/05 08:22:52;;;;;;;5.43;2.10;;;17.20;99.90;;;;;;4994105;28;20473;-78
2021/07/05 08:25:21;;;;;;;2.10;1.60;;;17.30;99.90;;;;;;4994889;28;20430;-79
2021/07/05 08:27:49;;;;;;;3.23;1.80;;;17.30;99.90;;;;;;4994129;28;20474;-80
2021/07/05 08:30:21;;;;;;;2.20;1.80;;;17.40;99.90;;;;;;4994760;28;20457;-78
2021/07/05 08:32:49;;;;;;;2.37;2.17;;;17.60;99.90;;;;;;5007897;28;20501;-79
2021/07/05 08:35:17;;;;;;;2.07;1.87;;;17.60;99.90;;;;;;4994880;28;20423;-78
2021/07/05 08:37:45;;;;;;;3.30;1.63;;;17.70;99.90;;;;;;5003163;28;20972;-77
2021/07/05 08:40:13;;;;;;;3.50;1.70;;;17.70;99.90;;;;;;4975720;28;20434;-79
2021/07/05 08:42:41;;;;;;;3.67;1.33;;;17.70;99.90;;;;;;4973337;28;20505;-78
2021/07/05 08:45:11;;;;;;;2.90;1.80;;;17.70;99.90;;;;;;4975096;28;20434;-79
2021/07/05 08:47:41;;;;;;;3.67;1.90;;;17.70;99.90;;;;;;4989668;28;20468;-79
2021/07/05 08:50:12;;;;;;;2.27;1.90;;;17.70;99.90;;;;;;4974950;28;20991;-80
2021/07/05 08:52:42;;;;;;;2.50;1.90;;;17.70;99.90;;;;;;4974776;28;20498;-81
2021/07/05 08:55:13;;;;;;;3.33;1.97;;;17.70;99.90;;;;;;4973974;28;20431;-81
2021/07/05 08:57:43;;;;;;;3.50;2.10;;;17.80;99.90;;;;;;4989122;28;20549;-82
2021/07/05 09:00:25;;;;;;;5.30;2.30;;;17.70;99.90;;;;;;4974938;28;20929;-81
2021/07/05 09:02:55;;;;;;;3.30;2.17;;;17.70;99.90;;;;;;4989561;28;20515;-80
2021/07/05 09:05:21;;;;;;;3.63;2.30;;;17.80;99.90;;;;;;4974654;28;20467;-79
2021/07/05 09:08:10;;;;;;;2.60;1.90;;;17.80;99.90;;;;;;4976079;28;20502;-78
2021/07/05 09:10:50;;;;;;;3.33;2.10;;;17.80;99.90;;;;;;4994156;28;20971;-81
2021/07/05 09:13:21;;;;;;;5.43;2.10;;;17.80;99.90;;;;;;5002439;28;20464;-79
2021/07/05 09:15:54;;;;;;;4.40;2.63;;;17.80;99.90;;;;;;5011559;28;20519;-79
2021/07/05 09:18:38;;;;;;;4.23;2.90;;;17.80;99.90;;;;;;4988512;28;20835;-81
2021/07/05 09:21:12;;;;;;;5.77;2.60;;;17.80;99.90;;;;;;4974306;28;20495;-80
2021/07/05 09:24:01;;;;;;;3.13;2.40;;;18.00;99.90;;;;;;4973435;28;20459;-79
2021/07/05 09:26:36;;;;;;;4.50;2.47;;;18.00;99.90;;;;;;4973543;28;20460;-79
2021/07/05 09:29:06;;;;;;;8.60;2.30;;;18.10;99.90;;;;;;4973991;28;20472;-80
2021/07/05 09:31:48;;;;;;;3.00;2.10;;;18.20;99.90;;;;;;4988116;28;20460;-79
2021/07/05 09:34:18;;;;;;;2.83;1.30;;;18.30;99.90;;;;;;4974674;28;20445;-80
2021/07/05 09:36:45;;;;;;;4.90;1.40;;;18.40;99.90;;;;;;4973526;28;20523;-79
2021/07/05 09:39:15;;;;;;;2.97;1.40;;;18.30;99.90;;;;;;4987207;28;20443;-80
2021/07/05 09:41:43;;;;;;;2.73;1.50;;;18.20;99.90;;;;;;4993011;28;20523;-77
2021/07/05 09:44:22;;;;;;;2.67;1.17;;;18.30;99.90;;;;;;4993567;28;20423;-76
2021/07/05 09:46:57;;;;;;;2.53;1.40;;;18.30;99.90;;;;;;4991113;28;20825;-78
2021/07/05 09:49:30;;;;;;;3.00;1.50;;;18.30;99.90;;;;;;4988682;28;20844;-79
2021/07/05 09:52:05;;;;;;;2.03;1.57;;;18.40;99.90;;;;;;4973278;28;20466;-78
2021/07/05 09:54:34;;;;;;;3.20;2.10;;;18.40;99.90;;;;;;5001450;28;20473;-80
2021/07/05 09:57:05;;;;;;;6.43;2.00;;;18.50;99.90;;;;;;4973290;28;20510;-78
2021/07/05 09:59:32;;;;;;;2.77;1.60;;;18.50;99.90;;;;;;4973811;28;20443;-79
2021/07/05 10:01:59;;;;;;;2.80;1.20;;;18.60;99.90;;;;;;4984950;28;20507;-78
2021/07/05 10:04:37;;;;;;;3.37;1.37;;;18.60;99.90;;;;;;4993316;28;20519;-79
2021/07/05 10:07:05;;;;;;;1.73;1.10;;;18.80;99.90;;;;;;4992364;28;20468;-76
2021/07/05 10:09:37;;;;;;;3.70;1.50;;;18.90;99.90;;;;;;4992585;28;20478;-80
2021/07/05 10:12:19;;;;;;;2.33;1.23;;;18.80;99.90;;;;;;5007666;28;20505;-79
2021/07/05 10:14:52;;;;;;;2.30;1.40;;;18.90;99.90;;;;;;5027806;28;20794;-76
2021/07/05 10:17:19;;;;;;;2.90;2.00;;;18.90;99.90;;;;;;5025498;28;20873;-76
2021/07/05 10:19:47;;;;;;;2.50;1.80;;;19.00;99.90;;;;;;5012107;28;20426;-78
2021/07/05 10:22:15;;;;;;;2.37;1.60;;;19.10;99.90;;;;;;5011798;28;20475;-79
2021/07/05 10:24:46;;;;;;;2.93;1.57;;;19.20;99.90;;;;;;4977486;28;20501;-76
2021/07/05 10:27:14;;;;;;;2.57;1.47;;;19.20;99.90;;;;;;4972578;28;20853;-75
2021/07/05 10:29:45;;;;;;;3.43;1.50;;;19.20;99.90;;;;;;4978704;28;20465;-77
2021/07/05 10:32:12;;;;;;;1.70;1.10;;;19.00;99.90;;;;;;5003959;28;20978;-77
2021/07/05 10:34:40;;;;;;;5.60;1.37;;;19.10;99.90;;;;;;4983128;28;20531;-76
2021/07/05 10:37:14;;;;;;;1.63;1.00;;;19.10;99.90;;;;;;4986826;28;20464;-77
2021/07/05 10:39:46;;;;;;;2.37;1.50;;;19.10;99.90;;;;;;4992583;28;20451;-77
2021/07/05 10:42:33;;;;;;;4.00;1.40;;;19.10;99.90;;;;;;4992017;28;20477;-77
2021/07/05 10:45:00;;;;;;;3.10;1.30;;;19.10;99.90;;;;;;5007755;28;20428;-75
2021/07/05 10:47:48;;;;;;;5.70;1.50;;;19.30;99.90;;;;;;4991789;28;20485;-78
2021/07/05 10:50:34;;;;;;;3.13;1.80;;;19.30;99.90;;;;;;4992471;28;20422;-76
2021/07/05 10:53:01;;;;;;;2.13;1.30;;;19.40;99.90;;;;;;5003123;28;20477;-75
2021/07/05 10:55:44;;;;;;;3.50;1.93;;;19.40;99.90;;;;;;4973406;28;20430;-77
2021/07/05 10:58:40;;;;;;;2.33;1.40;;;19.30;99.90;;;;;;4987349;28;20470;-77
2021/07/05 11:01:07;;;;;;;2.20;1.87;;;19.20;99.90;;;;;;4972821;28;20789;-76
2021/07/05 11:03:40;;;;;;;2.20;1.50;;;19.10;99.90;;;;;;4973215;28;20457;-78
2021/07/05 11:06:30;;;;;;;2.13;1.07;;;19.10;99.90;;;;;;4992338;28;20467;-76
2021/07/05 11:08:57;;;;;;;2.30;0.97;;;19.00;99.90;;;;;;4987599;28;20495;-78
2021/07/05 11:11:34;;;;;;;1.70;1.30;;;19.00;99.90;;;;;;4971282;28;20427;-75
2021/07/05 11:14:21;;;;;;;2.93;1.60;;;19.00;99.90;;;;;;4973085;28;20424;-77
2021/07/05 11:17:07;;;;;;;3.83;1.50;;;18.90;99.90;;;;;;4990417;28;20510;-76
2021/07/05 11:19:54;;;;;;;4.73;1.50;;;18.90;99.90;;;;;;4998351;28;20452;-77
2021/07/05 11:22:30;;;;;;;3.43;1.40;;;19.00;99.90;;;;;;4972323;28;21013;-77
2021/07/05 11:25:17;;;;;;;4.07;1.60;;;19.00;99.90;;;;;;4990124;28;20540;-77
2021/07/05 11:27:47;;;;;;;2.10;1.30;;;19.10;99.90;;;;;;4972024;28;20485;-78
2021/07/05 11:30:27;;;;;;;1.53;1.10;;;19.20;99.90;;;;;;4973678;28;20492;-77
2021/07/05 11:32:55;;;;;;;4.43;1.40;;;19.40;99.90;;;;;;4980241;28;20785;-78
2021/07/05 11:35:36;;;;;;;2.50;1.30;;;19.40;99.90;;;;;;5010549;28;20904;-77
2021/07/05 11:38:06;;;;;;;3.57;1.43;;;19.40;99.90;;;;;;4993713;28;20541;-77
2021/07/05 11:40:51;;;;;;;2.47;1.30;;;19.40;99.90;;;;;;5010795;28;20433;-78
2021/07/05 11:43:54;;;;;;;3.53;1.40;;;19.30;99.90;;;;;;4994973;28;20468;-77
2021/07/05 11:46:27;;;;;;;3.10;1.40;;;19.20;99.90;;;;;;4989085;28;21029;-76
2021/07/05 11:49:14;;;;;;;2.10;1.50;;;19.30;99.90;;;;;;4974498;28;20528;-78
2021/07/05 11:51:47;;;;;;;2.60;1.50;;;19.20;99.90;;;;;;4974263;28;20468;-77
2021/07/05 11:54:19;;;;;;;1.40;1.10;;;19.20;99.90;;;;;;4979419;28;20943;-76
2021/07/05 11:56:55;;;;;;;7.00;2.13;;;19.10;99.90;;;;;;4987566;28;20478;-75
2021/07/05 11:59:23;;;;;;;2.13;1.20;;;19.00;99.90;;;;;;4995355;28;20847;-76
2021/07/05 12:02:07;;;;;;;5.50;1.60;;;19.10;99.90;;;;;;4985317;28;20483;-78
2021/07/05 12:04:37;;;;;;;2.00;1.50;;;19.10;99.90;;;;;;4991526;28;20442;-78
2021/07/05 12:07:07;;;;;;;2.93;1.20;;;19.00;99.90;;;;;;4993356;28;20474;-77
2021/07/05 12:09:38;;;;;;;5.37;1.40;;;19.10;99.90;;;;;;4997926;28;20852;-75
2021/07/05 12:12:17;;;;;;;2.17;1.30;;;19.00;99.90;;;;;;4992319;28;20469;-76
2021/07/05 12:14:46;;;;;;;3.13;1.67;;;19.00;99.90;;;;;;4992981;28;20447;-76
2021/07/05 12:17:15;;;;;;;1.83;1.43;;;18.90;99.90;;;;;;4981764;28;20498;-76
2021/07/05 12:19:45;;;;;;;4.13;1.00;;;18.90;99.90;;;;;;4994816;28;20435;-77
2021/07/05 12:22:21;;;;;;;2.07;1.13;;;18.90;99.90;;;;;;4994836;28;20475;-76
2021/07/05 12:24:56;;;;;;;3.27;1.20;;;18.90;99.90;;;;;;4995807;28;20852;-78
2021/07/05 12:27:26;;;;;;;3.70;1.27;;;19.00;99.90;;;;;;4993017;28;20479;-78
2021/07/05 12:29:57;;;;;;;2.67;1.10;;;19.00;99.90;;;;;;4994634;28;20500;-77
2021/07/05 12:32:35;;;;;;;2.87;1.40;;;19.10;99.90;;;;;;4993917;28;20508;-76
2021/07/05 12:35:15;;;;;;;2.17;1.53;;;19.20;99.90;;;;;;4975645;28;20413;-77
2021/07/05 12:37:52;;;;;;;3.20;1.73;;;19.20;99.90;;;;;;4975835;28;20462;-75
2021/07/05 12:40:25;;;;;;;3.53;1.17;;;19.10;99.90;;;;;;4994742;28;20424;-77
2021/07/05 12:43:07;;;;;;;2.13;1.77;;;19.10;99.90;;;;;;4992694;28;20673;-77
2021/07/05 12:45:42;;;;;;;2.57;1.43;;;19.10;99.90;;;;;;4989698;28;20425;-75
2021/07/05 12:48:14;;;;;;;3.20;1.50;;;19.00;99.90;;;;;;4980189;28;20467;-78
2021/07/05 12:51:03;;;;;;;2.83;1.57;;;19.10;99.90;;;;;;5004670;28;20441;-75
2021/07/05 12:53:33;;;;;;;3.30;1.10;;;19.10;99.90;;;;;;4986851;28;20487;-76
2021/07/05 12:56:21;;;;;;;2.23;1.47;;;19.00;99.90;;;;;;4975070;28;20754;-76
2021/07/05 12:58:50;;;;;;;2.47;1.20;;;19.00;99.90;;;;;;4989643;28;20433;-77
2021/07/05 13:01:25;;;;;;;3.97;1.40;;;19.10;99.90;;;;;;4974942;28;20437;-76